Holesov, Czech Republic
Current Conditions -  °F | °C
As of 2:00 PM on Tuesday 21 Oct 2014 (Local Time) from LKKU Reporting Station
Scattered Clouds Scattered Clouds  
Wind Chill: 17°   Ceiling: Unl
Heat Index: 17°   Visibility: 6mi
Dew Point:   Wind: 9mph
Humidity: 59%   Direction: 240°WSW
Pressure: 29.83"   Gusts: NA
Location:  49.34°N, 17.58°E
Report Text: LKKU 211200Z 24008KT 210V310 9999 SCT035 17/09 Q1010 RMK REG QNH 1003
Loading
Personal Weather Stations






























Interactive Weather Map
Tropical Storm Tracking
New forecast layout! Learn more

10-Day Weather Forecast

Advertisements
Track Severe Weather on mobile